createdAt,value
2022-08-26T00:01:16.517Z,24.88
2022-08-26T00:03:22.223Z,24.86
2022-08-26T00:05:26.894Z,24.82
2022-08-26T00:07:28.654Z,24.78
2022-08-26T00:09:30.839Z,24.76
2022-08-26T00:11:32.837Z,24.73
2022-08-26T00:13:35.319Z,24.71
2022-08-26T00:15:38.824Z,24.69
2022-08-26T00:17:40.904Z,24.67
2022-08-26T00:19:42.688Z,24.63
2022-08-26T00:21:45.643Z,24.62
2022-08-26T00:23:47.855Z,24.58
2022-08-26T00:25:49.535Z,24.57
2022-08-26T00:27:51.375Z,24.54
2022-08-26T00:29:54.689Z,24.52
2022-08-26T00:31:58.427Z,24.49
2022-08-26T00:34:02.665Z,24.47
2022-08-26T00:36:05.568Z,24.44
2022-08-26T00:38:07.491Z,24.42
2022-08-26T00:40:13.440Z,24.39
2022-08-26T00:42:15.128Z,24.38
2022-08-26T00:44:20.758Z,24.35
2022-08-26T00:46:29.304Z,24.33
2022-08-26T00:48:34.137Z,24.32
2022-08-26T00:50:41.608Z,24.29
2022-08-26T00:52:45.090Z,24.27
2022-08-26T00:55:00.010Z,24.25
2022-08-26T00:57:15.816Z,24.20
2022-08-26T00:59:20.548Z,24.18
2022-08-26T01:01:22.877Z,24.15
2022-08-26T01:03:26.670Z,24.16
2022-08-26T01:05:29.527Z,24.13
2022-08-26T01:07:34.728Z,24.11
2022-08-26T01:09:36.712Z,24.09
2022-08-26T01:11:39.216Z,24.07
2022-08-26T01:13:41.537Z,24.04
2022-08-26T01:15:47.801Z,24.02
2022-08-26T01:17:54.662Z,24.00
2022-08-26T01:20:03.849Z,23.96
2022-08-26T01:22:10.763Z,23.93
2022-08-26T01:24:14.341Z,23.91
2022-08-26T01:26:24.378Z,23.89
2022-08-26T01:28:31.608Z,23.85
2022-08-26T01:30:37.418Z,23.84
2022-08-26T01:32:40.337Z,23.82
2022-08-26T01:34:43.952Z,23.79
2022-08-26T01:36:51.394Z,23.77
2022-08-26T01:38:56.576Z,23.74
2022-08-26T01:40:58.531Z,23.71
2022-08-26T01:43:02.296Z,23.69
2022-08-26T01:45:17.292Z,23.68
2022-08-26T01:47:21.405Z,23.65
2022-08-26T01:49:24.876Z,23.64
2022-08-26T01:51:29.831Z,23.63
2022-08-26T01:53:34.562Z,23.60
2022-08-26T01:55:39.247Z,23.57
2022-08-26T01:57:48.531Z,23.55
2022-08-26T01:59:51.993Z,23.53
2022-08-26T02:01:57.026Z,23.50
2022-08-26T02:04:02.947Z,23.49
2022-08-26T02:06:09.231Z,23.45
2022-08-26T02:08:13.164Z,23.43
2022-08-26T02:10:18.355Z,23.40
2022-08-26T02:12:23.173Z,23.40
2022-08-26T02:14:29.330Z,23.38
2022-08-26T02:16:38.413Z,23.35
2022-08-26T02:18:46.836Z,23.34
2022-08-26T02:20:51.666Z,23.32
2022-08-26T02:22:53.651Z,23.32
2022-08-26T02:25:10.591Z,23.30
2022-08-26T02:27:12.265Z,23.28
2022-08-26T02:29:26.454Z,23.27
2022-08-26T02:31:29.059Z,23.26
2022-08-26T02:33:30.923Z,23.25
2022-08-26T02:35:35.611Z,23.23
2022-08-26T02:37:37.677Z,23.21
2022-08-26T02:39:44.098Z,23.21
2022-08-26T02:41:47.024Z,23.21
2022-08-26T02:43:49.829Z,23.19
2022-08-26T02:45:51.751Z,23.18
2022-08-26T02:47:54.430Z,23.17
2022-08-26T02:49:58.351Z,23.16
2022-08-26T02:52:01.919Z,23.15
2022-08-26T02:54:04.099Z,23.14
2022-08-26T02:56:08.525Z,23.14
2022-08-26T02:58:11.263Z,23.11
2022-08-26T03:00:15.435Z,23.13
2022-08-26T03:02:17.356Z,23.12
2022-08-26T03:04:19.289Z,23.10
2022-08-26T03:06:22.481Z,23.09
2022-08-26T03:08:24.263Z,23.08
2022-08-26T03:10:27.221Z,23.06
2022-08-26T03:12:29.096Z,23.05
2022-08-26T03:14:31.552Z,23.03
2022-08-26T03:16:35.595Z,23.02
2022-08-26T03:18:37.359Z,23.01
2022-08-26T03:20:40.082Z,23.00
2022-08-26T03:22:43.212Z,22.98
2022-08-26T03:24:50.513Z,22.96
2022-08-26T03:26:53.191Z,22.96
2022-08-26T03:29:13.969Z,22.94
2022-08-26T03:31:16.940Z,22.90
2022-08-26T03:33:19.100Z,22.90
2022-08-26T03:35:22.467Z,22.88
2022-08-26T03:37:24.054Z,22.88
2022-08-26T03:39:25.629Z,22.88
2022-08-26T03:41:27.281Z,22.86
2022-08-26T03:43:28.937Z,22.85
2022-08-26T03:45:30.644Z,22.84
2022-08-26T03:47:33.686Z,22.84
2022-08-26T03:49:37.646Z,22.83
2022-08-26T03:51:40.528Z,22.82
2022-08-26T03:53:44.567Z,22.82
2022-08-26T03:55:47.368Z,22.82
2022-08-26T03:57:56.461Z,22.80
2022-08-26T03:59:59.353Z,22.80
2022-08-26T04:02:00.967Z,22.80
2022-08-26T04:04:05.023Z,22.77
2022-08-26T04:06:08.332Z,22.77
2022-08-26T04:08:11.063Z,22.76
2022-08-26T04:10:15.581Z,22.75
2022-08-26T04:12:21.883Z,22.73
2022-08-26T04:14:25.951Z,22.71
2022-08-26T04:16:29.477Z,22.72
2022-08-26T04:18:37.203Z,22.70
2022-08-26T04:20:39.248Z,22.70
2022-08-26T04:22:43.858Z,22.70
2022-08-26T04:24:46.347Z,22.70
2022-08-26T04:26:50.516Z,22.69
2022-08-26T04:28:53.996Z,22.66
2022-08-26T04:30:56.037Z,22.65
2022-08-26T04:32:58.127Z,22.64
2022-08-26T04:35:00.022Z,22.63
2022-08-26T04:37:05.218Z,22.62
2022-08-26T04:39:18.811Z,22.61
2022-08-26T04:41:22.690Z,22.58
2022-08-26T04:43:28.409Z,22.58
2022-08-26T04:45:30.036Z,22.56
2022-08-26T04:47:37.781Z,22.55
2022-08-26T04:49:39.698Z,22.54
2022-08-26T04:51:43.967Z,22.52
2022-08-26T04:53:45.957Z,22.51
2022-08-26T04:55:48.527Z,22.50
2022-08-26T04:57:50.282Z,22.50
2022-08-26T04:59:52.144Z,22.48
2022-08-26T05:01:57.296Z,22.49
2022-08-26T05:03:59.236Z,22.46
2022-08-26T05:06:05.070Z,22.47
2022-08-26T05:08:07.261Z,22.47
2022-08-26T05:10:11.366Z,22.48
2022-08-26T05:12:13.164Z,22.49
2022-08-26T05:14:18.735Z,22.50
2022-08-26T05:16:20.735Z,22.51
2022-08-26T05:18:25.807Z,22.53
2022-08-26T05:20:27.786Z,22.55
2022-08-26T05:22:29.309Z,22.55
2022-08-26T05:24:31.364Z,22.56
2022-08-26T05:26:33.598Z,22.58
2022-08-26T05:28:45.514Z,22.60
2022-08-26T05:30:52.417Z,22.61
2022-08-26T05:32:55.401Z,22.62
2022-08-26T05:34:57.061Z,22.64
2022-08-26T05:37:02.447Z,22.67
2022-08-26T05:39:06.234Z,22.69
2022-08-26T05:41:21.651Z,22.71
2022-08-26T05:43:23.266Z,22.73
2022-08-26T05:45:25.393Z,22.77
2022-08-26T05:47:26.953Z,22.79
2022-08-26T05:49:28.749Z,22.82
2022-08-26T05:51:31.021Z,22.83
2022-08-26T05:53:32.960Z,22.86
2022-08-26T05:55:35.539Z,22.89
2022-08-26T05:57:42.205Z,22.93
2022-08-26T05:59:44.629Z,22.97
2022-08-26T06:01:55.438Z,23.02
2022-08-26T06:04:01.492Z,23.05
2022-08-26T06:06:09.737Z,23.10
2022-08-26T06:08:14.002Z,23.16
2022-08-26T06:10:31.470Z,23.25
2022-08-26T06:12:34.269Z,23.34
2022-08-26T06:14:36.072Z,23.45
2022-08-26T06:16:41.365Z,23.53
2022-08-26T06:18:47.832Z,23.64
2022-08-26T06:20:57.921Z,23.74
2022-08-26T06:23:18.348Z,23.84
2022-08-26T06:25:38.247Z,23.97
2022-08-26T06:27:42.430Z,24.06
2022-08-26T06:29:43.909Z,24.16
2022-08-26T06:31:46.338Z,24.28
2022-08-26T06:33:48.046Z,24.38
2022-08-26T06:35:50.876Z,24.48
2022-08-26T06:37:52.735Z,24.58
2022-08-26T06:39:54.367Z,24.69
2022-08-26T06:41:56.950Z,24.78
2022-08-26T06:44:00.498Z,24.91
2022-08-26T06:46:06.288Z,25.02
2022-08-26T06:48:10.364Z,25.14
2022-08-26T06:50:11.835Z,25.25
2022-08-26T06:52:13.564Z,25.36
2022-08-26T06:54:15.238Z,25.48
2022-08-26T06:56:25.764Z,25.61
2022-08-26T06:58:33.785Z,25.71
2022-08-26T07:00:39.148Z,25.83
2022-08-26T07:02:46.192Z,25.96
2022-08-26T07:04:48.769Z,26.07
2022-08-26T07:06:53.921Z,26.17
2022-08-26T07:09:03.302Z,26.29
2022-08-26T07:11:07.273Z,26.41
2022-08-26T07:13:11.087Z,26.52
2022-08-26T07:15:13.388Z,26.62
2022-08-26T07:17:18.288Z,26.73
2022-08-26T07:19:29.966Z,26.84
2022-08-26T07:21:34.154Z,26.96
2022-08-26T07:23:39.360Z,27.06
2022-08-26T07:25:42.656Z,27.16
2022-08-26T07:27:54.327Z,27.26
2022-08-26T07:29:57.215Z,27.37
2022-08-26T07:32:02.592Z,27.49
2022-08-26T07:34:04.531Z,27.59
2022-08-26T07:36:08.634Z,27.70
2022-08-26T07:38:11.156Z,27.80
2022-08-26T07:40:14.033Z,27.91
2022-08-26T07:42:19.862Z,28.02
2022-08-26T07:44:21.574Z,28.15
2022-08-26T07:46:27.134Z,28.24
2022-08-26T07:48:32.012Z,28.36
2022-08-26T07:50:50.128Z,28.48
2022-08-26T07:52:52.622Z,28.60
2022-08-26T07:54:58.053Z,28.73
2022-08-26T07:56:59.851Z,28.84
2022-08-26T07:59:01.762Z,28.97
2022-08-26T08:01:05.079Z,29.11
2022-08-26T08:03:09.617Z,29.23
2022-08-26T08:05:19.832Z,29.34
2022-08-26T08:07:44.207Z,29.48
2022-08-26T08:09:53.268Z,29.63
2022-08-26T08:11:57.406Z,29.76
2022-08-26T08:14:00.786Z,29.91
2022-08-26T08:16:05.340Z,30.04
2022-08-26T08:18:07.451Z,30.15
2022-08-26T08:20:22.151Z,30.28
2022-08-26T08:22:31.227Z,30.41
2022-08-26T08:24:34.341Z,30.53
2022-08-26T08:26:47.949Z,30.66
2022-08-26T08:29:00.841Z,30.77
2022-08-26T08:31:03.509Z,30.92
2022-08-26T08:33:16.098Z,31.05
2022-08-26T08:35:29.503Z,31.17
2022-08-26T08:37:32.583Z,31.30
2022-08-26T08:39:47.372Z,31.42
2022-08-26T08:42:06.789Z,31.56
2022-08-26T08:44:18.469Z,31.73
2022-08-26T08:46:20.526Z,31.87
2022-08-26T08:48:27.925Z,32.01
2022-08-26T08:50:35.040Z,32.13
2022-08-26T08:52:39.169Z,32.23
2022-08-26T08:54:40.715Z,32.33
2022-08-26T08:57:01.698Z,32.41
2022-08-26T08:59:24.619Z,32.51
2022-08-26T09:01:26.441Z,32.62
2022-08-26T09:03:46.590Z,32.75
2022-08-26T09:05:51.483Z,32.87
2022-08-26T09:08:03.142Z,32.99
2022-08-26T09:10:37.050Z,33.11
2022-08-26T09:12:38.812Z,33.27
2022-08-26T09:14:41.201Z,33.39
2022-08-26T09:16:54.901Z,33.52
2022-08-26T09:19:04.984Z,33.66
2022-08-26T09:21:09.659Z,33.80
2022-08-26T09:23:11.606Z,33.93
2022-08-26T09:25:14.981Z,34.08
2022-08-26T09:27:40.206Z,34.22
2022-08-26T09:29:46.354Z,34.36
2022-08-26T09:32:13.265Z,34.48
2022-08-26T09:34:19.471Z,34.62
2022-08-26T09:36:39.522Z,34.76
2022-08-26T09:38:43.855Z,34.89
2022-08-26T09:40:59.312Z,35.02
2022-08-26T09:43:16.001Z,35.13
2022-08-26T09:45:30.020Z,35.25
2022-08-26T09:47:40.553Z,35.34
2022-08-26T09:49:42.288Z,35.42
2022-08-26T09:51:50.065Z,35.49
2022-08-26T09:53:58.091Z,35.57
2022-08-26T09:56:23.777Z,35.63
2022-08-26T09:58:37.957Z,35.71
2022-08-26T10:00:55.892Z,35.78
2022-08-26T10:03:03.965Z,35.90
2022-08-26T10:05:09.900Z,36.00
2022-08-26T10:07:14.666Z,36.08
2022-08-26T10:09:18.744Z,36.19
2022-08-26T10:11:56.601Z,36.28
2022-08-26T10:14:04.710Z,36.39
2022-08-26T10:16:17.883Z,36.48
2022-08-26T10:18:34.969Z,36.56
2022-08-26T10:20:41.801Z,36.66
2022-08-26T10:23:07.821Z,36.75
2022-08-26T10:25:16.520Z,36.86
2022-08-26T10:27:32.309Z,36.94
2022-08-26T10:29:48.823Z,37.02
2022-08-26T10:31:58.791Z,37.09
2022-08-26T10:34:05.373Z,37.15
2022-08-26T10:36:39.465Z,37.20
2022-08-26T10:38:57.130Z,37.28
2022-08-26T10:41:16.950Z,37.32
2022-08-26T10:43:25.578Z,37.38
2022-08-26T10:45:33.346Z,37.46
2022-08-26T10:47:42.938Z,37.52
2022-08-26T10:49:47.177Z,37.61
2022-08-26T10:52:22.465Z,37.66
2022-08-26T10:54:42.138Z,37.75
2022-08-26T10:56:53.264Z,37.85
2022-08-26T10:59:12.406Z,37.93
2022-08-26T11:01:41.259Z,38.03
2022-08-26T11:04:06.141Z,38.11
2022-08-26T11:06:27.960Z,38.20
2022-08-26T11:08:30.330Z,38.28
2022-08-26T11:10:38.046Z,38.36
2022-08-26T11:12:39.875Z,38.44
2022-08-26T11:14:53.535Z,38.49
2022-08-26T11:17:01.378Z,38.57
2022-08-26T11:19:09.485Z,38.65
2022-08-26T11:21:49.516Z,38.74
2022-08-26T11:23:53.032Z,38.85
2022-08-26T11:26:10.937Z,38.92
2022-08-26T11:28:44.141Z,39.00
2022-08-26T11:30:48.356Z,39.12
2022-08-26T11:32:59.360Z,39.20
2022-08-26T11:35:22.116Z,39.28
2022-08-26T11:37:35.149Z,39.35
2022-08-26T11:39:57.155Z,39.41
2022-08-26T11:42:25.188Z,39.46
2022-08-26T11:44:38.928Z,39.51
2022-08-26T11:46:56.280Z,39.57
2022-08-26T11:49:03.538Z,39.63
2022-08-26T11:51:11.498Z,39.69
2022-08-26T11:53:19.221Z,39.77
2022-08-26T11:55:24.275Z,39.83
2022-08-26T11:57:47.663Z,39.82
2022-08-26T11:59:49.625Z,39.78
2022-08-26T12:01:54.593Z,39.68
2022-08-26T12:03:58.393Z,39.57
2022-08-26T12:06:01.197Z,39.48
2022-08-26T12:08:09.703Z,39.34
2022-08-26T12:10:30.007Z,39.23
2022-08-26T12:12:36.162Z,39.13
2022-08-26T12:14:38.197Z,39.01
2022-08-26T12:16:45.427Z,38.88
2022-08-26T12:18:50.170Z,38.70
2022-08-26T12:20:56.240Z,38.51
2022-08-26T12:23:00.160Z,38.31
2022-08-26T12:25:06.616Z,38.12
2022-08-26T12:27:17.932Z,37.94
2022-08-26T12:29:28.174Z,37.78
2022-08-26T12:31:35.592Z,37.69
2022-08-26T12:33:43.026Z,37.61
2022-08-26T12:35:49.387Z,37.56
2022-08-26T12:37:54.195Z,37.53
2022-08-26T12:40:52.818Z,37.49
2022-08-26T12:42:54.957Z,37.49
2022-08-26T12:45:05.532Z,37.52
2022-08-26T12:47:43.121Z,37.53
2022-08-26T12:49:45.681Z,37.56
2022-08-26T12:51:52.853Z,37.56
2022-08-26T12:54:02.513Z,37.56
2022-08-26T12:56:33.784Z,37.57
2022-08-26T12:58:40.296Z,37.60
2022-08-26T13:00:46.099Z,37.61
2022-08-26T13:02:49.836Z,37.62
2022-08-26T13:05:00.671Z,37.62
2022-08-26T13:07:22.587Z,37.60
2022-08-26T13:09:30.435Z,37.61
2022-08-26T13:11:34.682Z,37.61
2022-08-26T13:13:37.152Z,37.58
2022-08-26T13:15:44.369Z,37.54
2022-08-26T13:17:46.091Z,37.50
2022-08-26T13:19:47.753Z,37.46
2022-08-26T13:21:55.426Z,37.41
2022-08-26T13:24:01.366Z,37.34
2022-08-26T13:26:03.433Z,37.29
2022-08-26T13:28:05.373Z,37.26
2022-08-26T13:30:07.881Z,37.22
2022-08-26T13:32:12.403Z,37.20
2022-08-26T13:34:20.966Z,37.16
2022-08-26T13:36:23.140Z,37.14
2022-08-26T13:38:33.787Z,37.11
2022-08-26T13:40:35.952Z,37.08
2022-08-26T13:42:37.652Z,37.07
2022-08-26T13:44:53.225Z,37.05
2022-08-26T13:46:55.182Z,37.06
2022-08-26T13:48:57.469Z,37.06
2022-08-26T13:50:59.864Z,37.08
2022-08-26T13:53:01.872Z,37.08
2022-08-26T13:55:07.917Z,37.06
2022-08-26T13:57:10.973Z,37.03
2022-08-26T13:59:14.298Z,36.98
2022-08-26T14:01:16.958Z,36.92
2022-08-26T14:03:18.981Z,36.87
2022-08-26T14:05:23.197Z,36.78
2022-08-26T14:07:25.009Z,36.69
2022-08-26T14:09:27.597Z,36.60
2022-08-26T14:11:30.214Z,36.50
2022-08-26T14:13:50.994Z,36.38
2022-08-26T14:15:53.164Z,36.28
2022-08-26T14:17:55.747Z,36.18
2022-08-26T14:19:57.661Z,36.10
2022-08-26T14:22:02.584Z,35.99
2022-08-26T14:24:08.338Z,35.85
2022-08-26T14:26:28.956Z,35.75
2022-08-26T14:28:31.240Z,35.60
2022-08-26T14:30:32.966Z,35.48
2022-08-26T14:32:35.579Z,35.36
2022-08-26T14:34:39.976Z,35.23
2022-08-26T14:36:41.659Z,35.11
2022-08-26T14:38:43.393Z,35.00
2022-08-26T14:40:45.448Z,34.87
2022-08-26T14:42:53.906Z,34.73
2022-08-26T14:44:58.628Z,34.55
2022-08-26T14:47:02.706Z,34.38
2022-08-26T14:49:07.274Z,34.22
2022-08-26T14:51:12.176Z,34.03
2022-08-26T14:53:33.310Z,33.85
2022-08-26T14:55:39.035Z,33.67
2022-08-26T14:57:40.632Z,33.51
2022-08-26T14:59:49.733Z,33.37
2022-08-26T15:01:52.504Z,33.20
2022-08-26T15:03:54.172Z,33.05
2022-08-26T15:05:55.811Z,32.91
2022-08-26T15:07:57.513Z,32.75
2022-08-26T15:09:59.173Z,32.63
2022-08-26T15:12:02.544Z,32.49
2022-08-26T15:14:04.663Z,32.34
2022-08-26T15:16:08.988Z,32.19
2022-08-26T15:18:10.745Z,32.04
2022-08-26T15:20:12.511Z,31.90
2022-08-26T15:22:14.197Z,31.75
2022-08-26T15:24:18.877Z,31.62
2022-08-26T15:26:21.298Z,31.48
2022-08-26T15:28:23.226Z,31.35
2022-08-26T15:30:26.895Z,31.21
2022-08-26T15:32:30.895Z,31.09
2022-08-26T15:34:32.498Z,30.97
2022-08-26T15:36:35.381Z,30.83
2022-08-26T15:38:40.241Z,30.68
2022-08-26T15:40:43.444Z,30.57
2022-08-26T15:42:45.161Z,30.44
2022-08-26T15:45:02.004Z,30.33
2022-08-26T15:47:03.986Z,30.21
2022-08-26T15:49:06.979Z,30.11
2022-08-26T15:51:20.903Z,30.00
2022-08-26T15:53:24.486Z,29.90
2022-08-26T15:55:26.032Z,29.81
2022-08-26T15:57:27.577Z,29.72
2022-08-26T15:59:32.555Z,29.64
2022-08-26T16:01:35.729Z,29.56
2022-08-26T16:03:37.420Z,29.48
2022-08-26T16:05:40.799Z,29.40
2022-08-26T16:07:42.478Z,29.31
2022-08-26T16:09:43.992Z,29.24
2022-08-26T16:11:45.754Z,29.19
2022-08-26T16:13:47.781Z,29.13
2022-08-26T16:15:49.396Z,29.05
2022-08-26T16:17:50.890Z,29.00
2022-08-26T16:19:52.400Z,28.93
2022-08-26T16:21:54.393Z,28.88
2022-08-26T16:23:59.359Z,28.81
2022-08-26T16:26:08.512Z,28.75
2022-08-26T16:28:13.498Z,28.69
2022-08-26T16:30:15.674Z,28.64
2022-08-26T16:32:17.355Z,28.60
2022-08-26T16:34:21.064Z,28.55
2022-08-26T16:36:22.660Z,28.49
2022-08-26T16:38:24.886Z,28.46
2022-08-26T16:40:27.966Z,28.40
2022-08-26T16:42:29.715Z,28.37
2022-08-26T16:44:44.162Z,28.30
2022-08-26T16:46:45.931Z,28.26
2022-08-26T16:48:48.839Z,28.21
2022-08-26T16:50:55.774Z,28.16
2022-08-26T16:52:57.639Z,28.10
2022-08-26T16:55:01.318Z,28.07
2022-08-26T16:57:03.041Z,28.00
2022-08-26T16:59:07.030Z,27.97
2022-08-26T17:01:09.211Z,27.93
2022-08-26T17:03:11.882Z,27.89
2022-08-26T17:05:13.887Z,27.85
2022-08-26T17:07:15.547Z,27.82
2022-08-26T17:09:17.422Z,27.78
2022-08-26T17:11:19.629Z,27.73
2022-08-26T17:13:35.380Z,27.69
2022-08-26T17:15:44.625Z,27.66
2022-08-26T17:17:49.285Z,27.63
2022-08-26T17:19:50.818Z,27.60
2022-08-26T17:21:52.343Z,27.57
2022-08-26T17:23:56.540Z,27.56
2022-08-26T17:25:58.102Z,27.52
2022-08-26T17:27:59.726Z,27.50
2022-08-26T17:30:03.691Z,27.47
2022-08-26T17:32:08.545Z,27.42
2022-08-26T17:34:10.040Z,27.41
2022-08-26T17:36:11.783Z,27.37
2022-08-26T17:38:13.428Z,27.31
2022-08-26T17:40:18.618Z,27.28
2022-08-26T17:42:20.227Z,27.23
2022-08-26T17:44:22.073Z,27.22
2022-08-26T17:46:24.514Z,27.23
2022-08-26T17:48:26.476Z,27.21
2022-08-26T17:50:30.567Z,27.20
2022-08-26T17:52:32.522Z,27.20
2022-08-26T17:54:34.226Z,27.15
2022-08-26T17:56:36.134Z,27.10
2022-08-26T17:58:51.031Z,27.09
2022-08-26T18:00:54.641Z,27.08
2022-08-26T18:02:56.801Z,27.07
2022-08-26T18:04:58.814Z,27.04
2022-08-26T18:07:03.234Z,27.03
2022-08-26T18:09:05.369Z,27.03
2022-08-26T18:11:11.417Z,27.02
2022-08-26T18:13:16.657Z,26.99
2022-08-26T18:15:18.864Z,26.97
2022-08-26T18:17:22.990Z,26.96
2022-08-26T18:19:24.587Z,26.95
2022-08-26T18:21:27.464Z,26.94
2022-08-26T18:23:31.470Z,26.91
2022-08-26T18:25:33.629Z,26.89
2022-08-26T18:27:36.714Z,26.87
2022-08-26T18:29:45.550Z,26.85
2022-08-26T18:31:48.476Z,26.81
2022-08-26T18:33:50.577Z,26.77
2022-08-26T18:35:54.891Z,26.75
2022-08-26T18:37:58.011Z,26.71
2022-08-26T18:40:12.165Z,26.69
2022-08-26T18:42:14.245Z,26.66
2022-08-26T18:44:21.238Z,26.64
2022-08-26T18:46:27.450Z,26.60
2022-08-26T18:48:31.558Z,26.58
2022-08-26T18:50:33.484Z,26.55
2022-08-26T18:52:35.140Z,26.52
2022-08-26T18:54:36.852Z,26.51
2022-08-26T18:56:40.075Z,26.47
2022-08-26T18:58:44.874Z,26.45
2022-08-26T19:00:46.635Z,26.43
2022-08-26T19:02:51.904Z,26.39
2022-08-26T19:04:57.379Z,26.37
2022-08-26T19:06:59.687Z,26.35
2022-08-26T19:09:06.914Z,26.32
2022-08-26T19:11:10.968Z,26.29
2022-08-26T19:13:15.825Z,26.28
2022-08-26T19:15:21.708Z,26.24
2022-08-26T19:17:23.525Z,26.22
2022-08-26T19:19:25.205Z,26.20
2022-08-26T19:21:28.032Z,26.18
2022-08-26T19:23:31.853Z,26.14
2022-08-26T19:25:34.113Z,26.12
2022-08-26T19:27:35.791Z,26.09
2022-08-26T19:29:40.328Z,26.09
2022-08-26T19:31:42.410Z,26.06
2022-08-26T19:33:45.842Z,26.04
2022-08-26T19:35:47.846Z,26.02
2022-08-26T19:37:49.526Z,26.00
2022-08-26T19:39:51.330Z,25.96
2022-08-26T19:41:53.518Z,25.94
2022-08-26T19:43:56.092Z,25.93
2022-08-26T19:46:00.732Z,25.90
2022-08-26T19:48:06.072Z,25.88
2022-08-26T19:50:11.562Z,25.86
2022-08-26T19:52:16.513Z,25.84
2022-08-26T19:54:18.244Z,25.81
2022-08-26T19:56:21.484Z,25.79
2022-08-26T19:58:23.219Z,25.79
2022-08-26T20:00:27.341Z,25.76
2022-08-26T20:02:29.198Z,25.73
2022-08-26T20:04:31.799Z,25.72
2022-08-26T20:06:34.430Z,25.72
2022-08-26T20:08:41.731Z,25.70
2022-08-26T20:10:44.413Z,25.68
2022-08-26T20:12:47.349Z,25.67
2022-08-26T20:14:48.944Z,25.66
2022-08-26T20:16:50.725Z,25.65
2022-08-26T20:19:11.380Z,25.63
2022-08-26T20:21:29.538Z,25.61
2022-08-26T20:23:31.425Z,25.59
2022-08-26T20:25:34.247Z,25.59
2022-08-26T20:27:38.406Z,25.58
2022-08-26T20:29:41.976Z,25.56
2022-08-26T20:31:44.644Z,25.56
2022-08-26T20:33:46.839Z,25.52
2022-08-26T20:35:48.566Z,25.53
2022-08-26T20:37:50.248Z,25.51
2022-08-26T20:39:54.374Z,25.48
2022-08-26T20:41:57.302Z,25.48
2022-08-26T20:43:59.312Z,25.45
2022-08-26T20:46:01.017Z,25.43
2022-08-26T20:48:02.993Z,25.43
2022-08-26T20:50:05.175Z,25.41
2022-08-26T20:52:06.788Z,25.41
2022-08-26T20:54:08.535Z,25.38
2022-08-26T20:56:15.391Z,25.37
2022-08-26T20:58:17.135Z,25.37
2022-08-26T21:00:22.942Z,25.36
2022-08-26T21:02:28.293Z,25.34
2022-08-26T21:04:29.948Z,25.34
2022-08-26T21:06:35.210Z,25.32
2022-08-26T21:08:38.726Z,25.30
2022-08-26T21:10:45.472Z,25.29
2022-08-26T21:12:47.570Z,25.28
2022-08-26T21:14:49.858Z,25.26
2022-08-26T21:16:51.868Z,25.27
2022-08-26T21:18:53.571Z,25.25
2022-08-26T21:20:55.429Z,25.25
2022-08-26T21:22:57.248Z,25.23
2022-08-26T21:25:02.075Z,25.22
2022-08-26T21:27:05.269Z,25.21
2022-08-26T21:29:09.517Z,25.19
2022-08-26T21:31:16.664Z,25.19
2022-08-26T21:33:18.416Z,25.19
2022-08-26T21:35:20.177Z,25.18
2022-08-26T21:37:22.121Z,25.16
2022-08-26T21:39:29.916Z,25.14
2022-08-26T21:41:31.693Z,25.15
2022-08-26T21:43:38.381Z,25.13
2022-08-26T21:45:41.442Z,25.12
2022-08-26T21:47:43.841Z,25.11
2022-08-26T21:49:45.863Z,25.10
2022-08-26T21:51:48.620Z,25.10
2022-08-26T21:53:52.921Z,25.09
2022-08-26T21:55:55.011Z,25.07
2022-08-26T21:57:56.698Z,25.05
2022-08-26T21:59:59.559Z,25.04
2022-08-26T22:02:01.696Z,25.03
2022-08-26T22:04:06.786Z,25.00
2022-08-26T22:06:08.502Z,24.99
2022-08-26T22:08:10.434Z,24.97
2022-08-26T22:10:12.532Z,24.96
2022-08-26T22:12:14.448Z,24.96
2022-08-26T22:14:18.301Z,24.93
2022-08-26T22:16:20.031Z,24.91
2022-08-26T22:18:21.550Z,24.90
2022-08-26T22:20:23.966Z,24.89
2022-08-26T22:22:26.220Z,24.87
2022-08-26T22:24:27.856Z,24.85
2022-08-26T22:26:32.133Z,24.84
2022-08-26T22:28:34.453Z,24.83
2022-08-26T22:30:35.897Z,24.80
2022-08-26T22:32:39.636Z,24.80
2022-08-26T22:34:41.908Z,24.77
2022-08-26T22:36:48.464Z,24.76
2022-08-26T22:38:50.901Z,24.74
2022-08-26T22:41:03.421Z,24.72
2022-08-26T22:43:12.109Z,24.69
2022-08-26T22:45:13.758Z,24.66
2022-08-26T22:47:15.379Z,24.66
2022-08-26T22:49:17.703Z,24.63
2022-08-26T22:51:19.853Z,24.61
2022-08-26T22:53:21.608Z,24.59
2022-08-26T22:55:23.286Z,24.58
2022-08-26T22:57:24.904Z,24.56
2022-08-26T22:59:26.556Z,24.52
2022-08-26T23:01:28.531Z,24.51
2022-08-26T23:03:30.291Z,24.49
2022-08-26T23:05:31.985Z,24.47
2022-08-26T23:07:34.756Z,24.46
2022-08-26T23:09:36.922Z,24.44
2022-08-26T23:11:42.653Z,24.41
2022-08-26T23:13:44.176Z,24.39
2022-08-26T23:15:46.012Z,24.39
2022-08-26T23:17:53.583Z,24.37
2022-08-26T23:20:01.578Z,24.35
2022-08-26T23:22:03.693Z,24.33
2022-08-26T23:24:07.133Z,24.32
2022-08-26T23:26:09.085Z,24.31
2022-08-26T23:28:13.450Z,24.30
2022-08-26T23:30:19.037Z,24.29
2022-08-26T23:32:26.396Z,24.27
2022-08-26T23:34:46.888Z,24.26
2022-08-26T23:36:49.864Z,24.23
2022-08-26T23:38:53.481Z,24.22
2022-08-26T23:40:58.189Z,24.20
2022-08-26T23:43:03.432Z,24.20
2022-08-26T23:45:10.678Z,24.18
2022-08-26T23:47:12.543Z,24.17
2022-08-26T23:49:13.948Z,24.16
2022-08-26T23:51:34.324Z,24.16
2022-08-26T23:53:35.926Z,24.14
2022-08-26T23:55:39.181Z,24.12
2022-08-26T23:57:44.142Z,24.12
2022-08-26T23:59:46.058Z,24.11
